Marco Polo — BR2031 — position and weather

sailwx.info

Track history (hours):
 
Tides and Currents Weather Stations Pressure Air Temp Water Temp Dewpoint Dewpoint Depression Visibility Wind Speed Wind Dir Waves Ship Positions

Marco Polo

Last reported at 2015-Apr-01 10:23 UTC. Time now 2015-Apr-01 10:42 UTC.
Position N 24°25' E 118°17'.

Length 32 m.

MMSI: 416000256.

Date/timePositionNaut miles runAvg speedWind from/ knotsBaromVisibWave heightAir tempDewpointWater temp
2015-Apr-01 10:23N 24°25' E 118°17'0 0.0
2015-Apr-01 09:33N 24°25' E 118°17'0 0.0
2015-Apr-01 08:32N 24°25' E 118°17'0 0.0
2015-Apr-01 07:30N 24°25' E 118°17'9 8.7
2015-Apr-01 06:30N 24°32' E 118°11'3 3.0
2015-Apr-01 05:31N 24°31' E 118°14'6 4.5
2015-Apr-01 04:06N 24°25' E 118°17'0 0.0
2015-Apr-01 03:34N 24°25' E 118°17'0 0.0
2015-Apr-01 02:32N 24°25' E 118°17'0 0.0
2015-Apr-01 01:32N 24°25' E 118°17'0 0.0
2015-Apr-01 00:33N 24°25' E 118°17'0 0.0
2015-Mar-31 23:33N 24°25' E 118°17'0 0.0
2015-Mar-31 22:30N 24°25' E 118°17'0 0.0
2015-Mar-31 21:33N 24°25' E 118°17'0 0.0
2015-Mar-31 20:32N 24°25' E 118°17'0 0.0
2015-Mar-31 19:33N 24°25' E 118°17'0 0.0
2015-Mar-31 18:33N 24°25' E 118°17'0 0.0
2015-Mar-31 17:32N 24°25' E 118°17'0 0.0
2015-Mar-31 16:33N 24°25' E 118°17'0 0.0
2015-Mar-31 15:32N 24°25' E 118°17'0 0.0
2015-Mar-31 14:32N 24°25' E 118°17'0 0.0
2015-Mar-31 09:31N 24°25' E 118°17'0 0.1
2015-Mar-31 07:32N 24°25' E 118°17'9 8.8
2015-Mar-31 06:31N 24°32' E 118°11'9 8.7
2015-Mar-31 05:29N 24°25' E 118°17'0 0.0
2015-Mar-31 04:27N 24°25' E 118°17'0 0.1
2015-Mar-31 03:33N 24°25' E 118°17'0 0.0
2015-Mar-31 02:33N 24°25' E 118°17'9 8.8
2015-Mar-31 01:34N 24°32' E 118°12'9 8.3
2015-Mar-31 00:30N 24°25' E 118°17'0 0.0
2015-Mar-30 23:32N 24°25' E 118°17'0 0.0
2015-Mar-30 22:33N 24°25' E 118°17'0 0.0
2015-Mar-30 21:27N 24°25' E 118°17'0 0.0
2015-Mar-30 20:33N 24°25' E 118°17'0 0.0
2015-Mar-30 19:33N 24°25' E 118°17'0 0.0
2015-Mar-30 18:33N 24°25' E 118°17'0 0.0
2015-Mar-30 17:33N 24°25' E 118°17'0 0.0
2015-Mar-30 16:32N 24°25' E 118°17'0 0.0
2015-Mar-30 15:24N 24°25' E 118°17'0 0.0
2015-Mar-30 09:33N 24°25' E 118°17'9 8.5
2015-Mar-30 08:30N 24°32' E 118°11'9 8.8
2015-Mar-30 07:29N 24°25' E 118°17'0 0.1
2015-Mar-30 06:22N 24°25' E 118°17'0 0.0
2015-Mar-30 04:24N 24°25' E 118°17'8 9.2
2015-Mar-30 03:33N 24°32' E 118°13'0 0.4
2015-Mar-30 02:32N 24°31' E 118°13'7 6.4
2015-Mar-30 01:23N 24°25' E 118°17'0 0.0
2015-Mar-29 09:33N 24°25' E 118°17'0 0.0
2015-Mar-29 08:32N 24°25' E 118°17'1 0.7
2015-Mar-29 07:33N 24°26' E 118°17'8 8.3
2015-Mar-29 06:32N 24°32' E 118°11'9 3.7
2015-Mar-29 04:07N 24°25' E 118°17'0 0.0
2015-Mar-29 01:32N 24°25' E 118°17'9 9.0
2015-Mar-29 00:33N 24°32' E 118°11'9 8.9
2015-Mar-28 23:33N 24°25' E 118°17'0 0.0
2015-Mar-28 22:33N 24°25' E 118°17'0 0.0
2015-Mar-28 21:33N 24°25' E 118°17'0 0.0
2015-Mar-28 20:33N 24°25' E 118°17'0 0.0
2015-Mar-28 19:33N 24°25' E 118°17'0 0.0
2015-Mar-28 18:33N 24°25' E 118°17'0 0.0
2015-Mar-28 17:33N 24°25' E 118°17'0 0.0
2015-Mar-28 16:33N 24°25' E 118°17'0 0.0
2015-Mar-28 15:33N 24°25' E 118°17'0 0.0
2015-Mar-28 14:29N 24°25' E 118°17'0 0.0
2015-Mar-28 10:03N 24°25' E 118°17'815.4
2015-Mar-28 09:33N 24°32' E 118°13'7 7.0
2015-Mar-28 08:32N 24°26' E 118°17'1 0.6
2015-Mar-28 07:31N 24°25' E 118°17'1 1.0
2015-Mar-28 06:33N 24°26' E 118°17'8 8.1
2015-Mar-28 05:33N 24°32' E 118°11'9 4.3
2015-Mar-28 03:33N 24°25' E 118°17'0 0.0
2015-Mar-27 08:33N 24°26' E 118°17'8 8.3
2015-Mar-27 07:33N 24°32' E 118°11'9 7.5
2015-Mar-27 06:21N 24°25' E 118°17'0 0.0
2015-Mar-27 05:33N 24°25' E 118°17'8 7.9
2015-Mar-27 04:33N 24°32' E 118°13'0 0.2
2015-Mar-27 03:33N 24°31' E 118°13'7 7.2
2015-Mar-27 02:33N 24°25' E 118°17'0 0.0
2015-Mar-26 07:33N 24°25' E 118°17'9 8.9
2015-Mar-26 06:33N 24°32' E 118°11'9 8.8
2015-Mar-26 05:31N 24°25' E 118°17'0 0.0
2015-Mar-26 04:30N 24°25' E 118°17'0 0.1
2015-Mar-26 03:33N 24°25' E 118°17'2 1.9
2015-Mar-26 02:33N 24°27' E 118°17'6 6.0
2015-Mar-26 01:33N 24°31' E 118°13'8 7.3
2015-Mar-26 00:31N 24°25' E 118°17'0 0.0
2015-Mar-25 23:31N 24°25' E 118°17'0 0.0
2015-Mar-25 22:33N 24°25' E 118°17'0 0.0
2015-Mar-25 21:33N 24°25' E 118°17'0 0.0
2015-Mar-25 20:31N 24°25' E 118°17'0 0.0
2015-Mar-25 00:32N 24°25' E 118°17'0 0.0
2015-Mar-24 23:32N 24°25' E 118°17'0 0.0
2015-Mar-24 22:33N 24°25' E 118°17'0 0.0
2015-Mar-24 21:33N 24°25' E 118°17'0 0.0
2015-Mar-24 20:33N 24°25' E 118°17'0 0.0
2015-Mar-24 19:33N 24°25' E 118°17'0 0.0
2015-Mar-24 18:33N 24°25' E 118°17'0 0.0
2015-Mar-24 17:33N 24°25' E 118°17'0 0.0
2015-Mar-24 16:32N 24°25' E 118°17'0 0.0
2015-Mar-24 15:34N 24°25' E 118°17'0 0.0
2015-Mar-24 14:29N 24°25' E 118°17'0 0.0
2015-Mar-24 09:29N 24°25' E 118°17'9 9.2
2015-Mar-24 08:31N 24°32' E 118°11'9 8.4
2015-Mar-24 07:27N 24°25' E 118°17'2 2.1
2015-Mar-24 06:33N 24°27' E 118°17'7 7.4
2015-Mar-24 05:32N 24°32' E 118°11'1 1.3
2015-Mar-24 04:33N 24°32' E 118°12'8 7.9
2015-Mar-24 03:33N 24°25' E 118°17'0 0.1
2015-Mar-24 02:33N 24°25' E 118°17'0 0.4
2015-Mar-24 01:32N 24°25' E 118°17'8 8.2
2015-Mar-24 00:33N 24°32' E 118°12'9 8.5
2015-Mar-23 23:33N 24°25' E 118°17'0 0.0
2015-Mar-23 22:33N 24°25' E 118°17'0 0.0
2015-Mar-23 21:32N 24°25' E 118°17'0 0.0
2015-Mar-23 20:33N 24°25' E 118°17'0 0.0
2015-Mar-23 19:32N 24°25' E 118°17'0 0.0
2015-Mar-23 18:33N 24°25' E 118°17'0 0.0
2015-Mar-23 17:33N 24°25' E 118°17'0 0.0
2015-Mar-23 16:32N 24°25' E 118°17'0 0.0
2015-Mar-23 15:31N 24°25' E 118°17'8 1.3
2015-Mar-23 09:33N 24°32' E 118°13'8 7.2
2015-Mar-23 08:29N 24°25' E 118°17'0 0.1
2015-Mar-23 07:31N 24°25' E 118°17'9 7.3
2015-Mar-23 06:17N 24°32' E 118°11'912.0
2015-Mar-23 05:33N 24°25' E 118°17'0 0.1
2015-Mar-23 04:32N 24°25' E 118°17'0 0.5
2015-Mar-23 03:33N 24°25' E 118°17'0 0.0
2015-Mar-23 02:31N 24°25' E 118°17'1 1.1
2015-Mar-23 01:33N 24°27' E 118°17'6 6.5
2015-Mar-23 00:33N 24°32' E 118°13'8 7.4
2015-Mar-22 23:30N 24°25' E 118°17'0 0.0
2015-Mar-22 22:32N 24°25' E 118°17'0 0.0
2015-Mar-22 21:29N 24°25' E 118°17'0 0.0
2015-Mar-22 20:32N 24°25' E 118°17'0 0.0
2015-Mar-22 19:32N 24°25' E 118°17'0 0.0
2015-Mar-22 18:33N 24°25' E 118°17'0 0.0
2015-Mar-22 17:32N 24°25' E 118°17'0 0.0
2015-Mar-22 16:33N 24°25' E 118°17'0 0.0
2015-Mar-22 15:29N 24°25' E 118°17'0 0.0
2015-Mar-22 14:31N 24°25' E 118°17'  
Track history (hours):
 
Tides and Currents Weather Stations Pressure Air Temp Water Temp Dewpoint Dewpoint Depression Visibility Wind Speed Wind Dir Waves Ship Positions

Marco Polo

Last reported at 2015-Apr-01 10:23 UTC. Time now 2015-Apr-01 10:42 UTC.
Position N 24°25' E 118°17'.

Length 32 m.

MMSI: 416000256.

Date/timePositionNaut miles runAvg speedWind from/ knotsBaromVisibWave heightAir tempDewpointWater temp
2015-Apr-01 10:23N 24°25' E 118°17'0 0.0
2015-Apr-01 09:33N 24°25' E 118°17'0 0.0
2015-Apr-01 08:32N 24°25' E 118°17'0 0.0
2015-Apr-01 07:30N 24°25' E 118°17'9 8.7
2015-Apr-01 06:30N 24°32' E 118°11'3 3.0
2015-Apr-01 05:31N 24°31' E 118°14'6 4.5
2015-Apr-01 04:06N 24°25' E 118°17'0 0.0
2015-Apr-01 03:34N 24°25' E 118°17'0 0.0
2015-Apr-01 02:32N 24°25' E 118°17'0 0.0
2015-Apr-01 01:32N 24°25' E 118°17'0 0.0
2015-Apr-01 00:33N 24°25' E 118°17'0 0.0
2015-Mar-31 23:33N 24°25' E 118°17'0 0.0
2015-Mar-31 22:30N 24°25' E 118°17'0 0.0
2015-Mar-31 21:33N 24°25' E 118°17'0 0.0
2015-Mar-31 20:32N 24°25' E 118°17'0 0.0
2015-Mar-31 19:33N 24°25' E 118°17'0 0.0
2015-Mar-31 18:33N 24°25' E 118°17'0 0.0
2015-Mar-31 17:32N 24°25' E 118°17'0 0.0
2015-Mar-31 16:33N 24°25' E 118°17'0 0.0
2015-Mar-31 15:32N 24°25' E 118°17'0 0.0
2015-Mar-31 14:32N 24°25' E 118°17'0 0.0
2015-Mar-31 09:31N 24°25' E 118°17'0 0.1
2015-Mar-31 07:32N 24°25' E 118°17'9 8.8
2015-Mar-31 06:31N 24°32' E 118°11'9 8.7
2015-Mar-31 05:29N 24°25' E 118°17'0 0.0
2015-Mar-31 04:27N 24°25' E 118°17'0 0.1
2015-Mar-31 03:33N 24°25' E 118°17'0 0.0
2015-Mar-31 02:33N 24°25' E 118°17'9 8.8
2015-Mar-31 01:34N 24°32' E 118°12'9 8.3
2015-Mar-31 00:30N 24°25' E 118°17'0 0.0
2015-Mar-30 23:32N 24°25' E 118°17'0 0.0
2015-Mar-30 22:33N 24°25' E 118°17'0 0.0
2015-Mar-30 21:27N 24°25' E 118°17'0 0.0
2015-Mar-30 20:33N 24°25' E 118°17'0 0.0
2015-Mar-30 19:33N 24°25' E 118°17'0 0.0
2015-Mar-30 18:33N 24°25' E 118°17'0 0.0
2015-Mar-30 17:33N 24°25' E 118°17'0 0.0
2015-Mar-30 16:32N 24°25' E 118°17'0 0.0
2015-Mar-30 15:24N 24°25' E 118°17'0 0.0
2015-Mar-30 09:33N 24°25' E 118°17'9 8.5
2015-Mar-30 08:30N 24°32' E 118°11'9 8.8
2015-Mar-30 07:29N 24°25' E 118°17'0 0.1
2015-Mar-30 06:22N 24°25' E 118°17'0 0.0
2015-Mar-30 04:24N 24°25' E 118°17'8 9.2
2015-Mar-30 03:33N 24°32' E 118°13'0 0.4
2015-Mar-30 02:32N 24°31' E 118°13'7 6.4
2015-Mar-30 01:23N 24°25' E 118°17'0 0.0
2015-Mar-29 09:33N 24°25' E 118°17'0 0.0
2015-Mar-29 08:32N 24°25' E 118°17'1 0.7
2015-Mar-29 07:33N 24°26' E 118°17'8 8.3
2015-Mar-29 06:32N 24°32' E 118°11'9 3.7
2015-Mar-29 04:07N 24°25' E 118°17'0 0.0
2015-Mar-29 01:32N 24°25' E 118°17'9 9.0
2015-Mar-29 00:33N 24°32' E 118°11'9 8.9
2015-Mar-28 23:33N 24°25' E 118°17'0 0.0
2015-Mar-28 22:33N 24°25' E 118°17'0 0.0
2015-Mar-28 21:33N 24°25' E 118°17'0 0.0
2015-Mar-28 20:33N 24°25' E 118°17'0 0.0
2015-Mar-28 19:33N 24°25' E 118°17'0 0.0
2015-Mar-28 18:33N 24°25' E 118°17'0 0.0
2015-Mar-28 17:33N 24°25' E 118°17'0 0.0
2015-Mar-28 16:33N 24°25' E 118°17'0 0.0
2015-Mar-28 15:33N 24°25' E 118°17'0 0.0
2015-Mar-28 14:29N 24°25' E 118°17'0 0.0
2015-Mar-28 10:03N 24°25' E 118°17'815.4
2015-Mar-28 09:33N 24°32' E 118°13'7 7.0
2015-Mar-28 08:32N 24°26' E 118°17'1 0.6
2015-Mar-28 07:31N 24°25' E 118°17'1 1.0
2015-Mar-28 06:33N 24°26' E 118°17'8 8.1
2015-Mar-28 05:33N 24°32' E 118°11'9 4.3
2015-Mar-28 03:33N 24°25' E 118°17'0 0.0
2015-Mar-27 08:33N 24°26' E 118°17'8 8.3
2015-Mar-27 07:33N 24°32' E 118°11'9 7.5
2015-Mar-27 06:21N 24°25' E 118°17'0 0.0
2015-Mar-27 05:33N 24°25' E 118°17'8 7.9
2015-Mar-27 04:33N 24°32' E 118°13'0 0.2
2015-Mar-27 03:33N 24°31' E 118°13'7 7.2
2015-Mar-27 02:33N 24°25' E 118°17'0 0.0
2015-Mar-26 07:33N 24°25' E 118°17'9 8.9
2015-Mar-26 06:33N 24°32' E 118°11'9 8.8
2015-Mar-26 05:31N 24°25' E 118°17'0 0.0
2015-Mar-26 04:30N 24°25' E 118°17'0 0.1
2015-Mar-26 03:33N 24°25' E 118°17'2 1.9
2015-Mar-26 02:33N 24°27' E 118°17'6 6.0
2015-Mar-26 01:33N 24°31' E 118°13'8 7.3
2015-Mar-26 00:31N 24°25' E 118°17'0 0.0
2015-Mar-25 23:31N 24°25' E 118°17'0 0.0
2015-Mar-25 22:33N 24°25' E 118°17'0 0.0
2015-Mar-25 21:33N 24°25' E 118°17'0 0.0
2015-Mar-25 20:31N 24°25' E 118°17'0 0.0
2015-Mar-25 00:32N 24°25' E 118°17'0 0.0
2015-Mar-24 23:32N 24°25' E 118°17'0 0.0
2015-Mar-24 22:33N 24°25' E 118°17'0 0.0
2015-Mar-24 21:33N 24°25' E 118°17'0 0.0
2015-Mar-24 20:33N 24°25' E 118°17'0 0.0
2015-Mar-24 19:33N 24°25' E 118°17'0 0.0
2015-Mar-24 18:33N 24°25' E 118°17'0 0.0
2015-Mar-24 17:33N 24°25' E 118°17'0 0.0
2015-Mar-24 16:32N 24°25' E 118°17'0 0.0
2015-Mar-24 15:34N 24°25' E 118°17'0 0.0
2015-Mar-24 14:29N 24°25' E 118°17'0 0.0
2015-Mar-24 09:29N 24°25' E 118°17'9 9.2
2015-Mar-24 08:31N 24°32' E 118°11'9 8.4
2015-Mar-24 07:27N 24°25' E 118°17'2 2.1
2015-Mar-24 06:33N 24°27' E 118°17'7 7.4
2015-Mar-24 05:32N 24°32' E 118°11'1 1.3
2015-Mar-24 04:33N 24°32' E 118°12'8 7.9
2015-Mar-24 03:33N 24°25' E 118°17'0 0.1
2015-Mar-24 02:33N 24°25' E 118°17'0 0.4
2015-Mar-24 01:32N 24°25' E 118°17'8 8.2
2015-Mar-24 00:33N 24°32' E 118°12'9 8.5
2015-Mar-23 23:33N 24°25' E 118°17'0 0.0
2015-Mar-23 22:33N 24°25' E 118°17'0 0.0
2015-Mar-23 21:32N 24°25' E 118°17'0 0.0
2015-Mar-23 20:33N 24°25' E 118°17'0 0.0
2015-Mar-23 19:32N 24°25' E 118°17'0 0.0
2015-Mar-23 18:33N 24°25' E 118°17'0 0.0
2015-Mar-23 17:33N 24°25' E 118°17'0 0.0
2015-Mar-23 16:32N 24°25' E 118°17'0 0.0
2015-Mar-23 15:31N 24°25' E 118°17'8 1.3
2015-Mar-23 09:33N 24°32' E 118°13'8 7.2
2015-Mar-23 08:29N 24°25' E 118°17'0 0.1
2015-Mar-23 07:31N 24°25' E 118°17'9 7.3
2015-Mar-23 06:17N 24°32' E 118°11'912.0
2015-Mar-23 05:33N 24°25' E 118°17'0 0.1
2015-Mar-23 04:32N 24°25' E 118°17'0 0.5
2015-Mar-23 03:33N 24°25' E 118°17'0 0.0
2015-Mar-23 02:31N 24°25' E 118°17'1 1.1
2015-Mar-23 01:33N 24°27' E 118°17'6 6.5
2015-Mar-23 00:33N 24°32' E 118°13'8 7.4
2015-Mar-22 23:30N 24°25' E 118°17'0 0.0
2015-Mar-22 22:32N 24°25' E 118°17'0 0.0
2015-Mar-22 21:29N 24°25' E 118°17'0 0.0
2015-Mar-22 20:32N 24°25' E 118°17'0 0.0
2015-Mar-22 19:32N 24°25' E 118°17'0 0.0
2015-Mar-22 18:33N 24°25' E 118°17'0 0.0
2015-Mar-22 17:32N 24°25' E 118°17'0 0.0
2015-Mar-22 16:33N 24°25' E 118°17'0 0.0
2015-Mar-22 15:29N 24°25' E 118°17'0 0.0
2015-Mar-22 14:31N 24°25' E 118°17'  

Dump ship's entire track history